aviador You're here:

SAAR Decoded Metar

ROSARIO in ARGENTINA
Report Time2017-08-21 23:00:00
UTC Time2017-08-21 23:55:04
Flight Rules vfr VFR
Wind020° at 09 kt
W.Decomp.*RWY 02: 9.0 kt HW 0.8 kt RCW
W.Rank020° ranks 5
Current wind is above 020° avg. (7.3)
Visibility9999 m
Phenomena:N/A
Clouds:N/A
Expected CloudBase > 3,600 ft AGL from Temp-Dew spread
CeilingNone
Temp15°C (ISA 0)
Dew Point06°C (55% RH)
AAT10.8°C
QNH1022 hPa
Density Alt-75 ft
Elevation82 ft
Report Wrong Elevation
Raw Report
METAR SAAR 212300Z 02009KT CAVOK 15/06 Q1022=

Extra information for SAAR:More info

Metar Taf Metar & Taf Last 4 Metars F.Rules Stats Wind Profile Meteogram Temp Stats Airport Information Weather charts Add Link Nearby VenuesMetar ALERT Operation Metar Decoded Social comments